Time;durP1;ratioP1;P1;durP2;ratioP2;P2;SDS_P1;SDS_P2;PMS_P1;PMS_P2;Temp;Humidity;BMP_temperature;BMP_pressure;BME280_temperature;BME280_humidity;BME280_pressure;Samples;Min_cycle;Max_cycle;Signal;HPM_P1;HPM_P2
2022/05/26 00:00:21;;;;;;;;;;;;;;;25.63;58.91;98833.59;2095117;28;19939;-51
2022/05/26 00:01:23;;;;;;;;;;;;;;;25.61;58.78;98835.72;2093187;28;19974;-53
2022/05/26 00:02:24;;;;;;;;;;;;;;;25.62;59.05;98840.06;2090585;28;19928;-50
2022/05/26 00:03:25;;;;;;;;;;;;;;;25.64;59.14;98845.28;2092919;28;19938;-49
2022/05/26 00:04:26;;;;;;;;;;;;;;;25.63;59.14;98841.75;2094617;28;19935;-49
2022/05/26 00:05:30;;;;;;;;;;;;;;;25.66;58.88;98845.84;2091957;28;19936;-50
2022/05/26 00:06:31;;;;;;;;;;;;;;;25.65;59.06;98841.47;2093951;28;19957;-51
2022/05/26 00:07:32;;;;;;;;;;;;;;;25.63;59.11;98844.44;2091962;28;20033;-50
2022/05/26 00:08:33;;;;;;;;;;;;;;;25.66;59.12;98850.44;2088967;28;19924;-51
2022/05/26 00:09:35;;;;;;;;;;;;;;;25.64;58.98;98847.97;2088998;28;19928;-49
2022/05/26 00:10:35;;;;;;;;;;;;;;;25.64;58.83;98859.66;2093031;28;20543;-49
2022/05/26 00:11:38;;;;;;;;;;;;;;;25.65;59.43;98855.06;2089971;28;19974;-52
2022/05/26 00:12:38;;;;;;;;;;;;;;;25.67;59.40;98852.94;2089860;28;19928;-49
2022/05/26 00:13:40;;;;;;;;;;;;;;;25.67;59.40;98854.81;2092264;28;19931;-52
2022/05/26 00:14:41;;;;;;;;;;;;;;;25.66;59.25;98858.59;2091831;28;19932;-49
2022/05/26 00:15:43;;;;;;;;;;;;;;;25.64;59.22;98853.41;2094721;28;20397;-52
2022/05/26 00:16:45;;;;;;;;;;;;;;;25.66;59.44;98855.88;2092572;28;19928;-49
2022/05/26 00:17:46;;;;;;;;;;;;;;;25.64;59.57;98854.25;2091520;28;19928;-49
2022/05/26 00:18:47;;;;;;;;;;;;;;;25.66;59.59;98847.72;2092298;28;19928;-51
2022/05/26 00:19:49;;;;;;;;;;;;;;;25.63;59.36;98849.88;2093773;28;19924;-49
2022/05/26 00:20:51;;;;;;;;;;;;;;;25.63;59.11;98852.59;2090312;28;19932;-51
2022/05/26 00:21:53;;;;;;;;;;;;;;;25.64;59.04;98850.69;2084694;28;19928;-49
2022/05/26 00:22:53;;;;;;;;;;;;;;;25.66;59.34;98855.88;2082261;28;19936;-49
2022/05/26 00:23:56;;;;;;;;;;;;;;;25.64;58.92;98850.69;2086642;28;19933;-54
2022/05/26 00:24:56;;;;;;;;;;;;;;;25.66;59.17;98850.44;2085513;28;19929;-54
2022/05/26 00:25:58;;;;;;;;;;;;;;;25.66;59.63;98845.00;2082491;28;20453;-52
2022/05/26 00:26:59;;;;;;;;;;;;;;;25.64;59.85;98842.56;2083020;28;21017;-53
2022/05/26 00:28:00;;;;;;;;;;;;;;;25.66;59.39;98845.00;2082529;28;19986;-48
2022/05/26 00:29:01;;;;;;;;;;;;;;;25.64;59.14;98843.38;2085815;28;19932;-54
2022/05/26 00:30:02;;;;;;;;;;;;;;;25.64;59.09;98835.22;2082210;28;19980;-53
2022/05/26 00:31:03;;;;;;;;;;;;;;;25.66;59.56;98834.13;2085091;28;19971;-56
2022/05/26 00:32:05;;;;;;;;;;;;;;;25.63;59.27;98836.31;2086361;28;19925;-55
2022/05/26 00:33:07;;;;;;;;;;;;;;;25.63;59.47;98830.88;2080775;28;19935;-55
2022/05/26 00:34:09;;;;;;;;;;;;;;;25.66;59.17;98845.00;2083008;28;19936;-55
2022/05/26 00:35:09;;;;;;;;;;;;;;;25.64;59.13;98832.50;2083264;28;19932;-56
2022/05/26 00:36:13;;;;;;;;;;;;;;;25.66;59.44;98836.84;2084252;28;20418;-51
2022/05/26 00:37:15;;;;;;;;;;;;;;;25.63;59.50;98835.44;2083050;28;19928;-52
2022/05/26 00:38:16;;;;;;;;;;;;;;;25.64;59.35;98834.41;2085666;28;20878;-53
2022/05/26 00:39:18;;;;;;;;;;;;;;;25.64;59.35;98826.25;2084919;28;19990;-52
2022/05/26 00:40:19;;;;;;;;;;;;;;;25.62;59.37;98834.63;2082767;28;19935;-50
2022/05/26 00:41:21;;;;;;;;;;;;;;;25.64;59.27;98826.25;2082337;28;19925;-51
2022/05/26 00:42:21;;;;;;;;;;;;;;;25.61;59.52;98824.84;2082675;28;19956;-53
2022/05/26 00:43:23;;;;;;;;;;;;;;;25.63;59.60;98825.44;2082430;28;19979;-52
2022/05/26 00:44:24;;;;;;;;;;;;;;;25.64;59.35;98820.81;2085074;28;19929;-54
2022/05/26 00:45:30;;;;;;;;;;;;;;;25.65;59.39;98830.59;2087919;28;19935;-52
2022/05/26 00:46:34;;;;;;;;;;;;;;;25.65;59.07;98822.47;2082609;28;19928;-50
2022/05/26 00:47:41;;;;;;;;;;;;;;;25.66;59.20;98826.00;2085494;28;19928;-56
2022/05/26 00:48:43;;;;;;;;;;;;;;;25.64;59.58;98827.06;2083726;28;19928;-53
2022/05/26 00:49:46;;;;;;;;;;;;;;;25.64;59.23;98815.38;2083872;28;19951;-52
2022/05/26 00:50:49;;;;;;;;;;;;;;;25.63;59.37;98816.44;2081195;28;20015;-52
2022/05/26 00:51:52;;;;;;;;;;;;;;;25.62;59.00;98812.91;2083023;28;20460;-51
2022/05/26 00:52:53;;;;;;;;;;;;;;;25.63;59.19;98806.44;2084601;28;20493;-49
2022/05/26 00:53:57;;;;;;;;;;;;;;;25.64;58.95;98810.78;2082207;28;20437;-50
2022/05/26 00:55:02;;;;;;;;;;;;;;;25.66;58.80;98815.13;2084953;28;20325;-52
2022/05/26 00:56:07;;;;;;;;;;;;;;;25.69;58.59;98809.22;2086010;28;19924;-50
2022/05/26 00:57:10;;;;;;;;;;;;;;;25.68;58.54;98815.72;2090720;28;19971;-51
2022/05/26 00:58:14;;;;;;;;;;;;;;;25.64;58.83;98805.34;2090110;28;20319;-53
2022/05/26 00:59:18;;;;;;;;;;;;;;;25.68;58.49;98805.66;2089997;28;20039;-54
2022/05/26 01:00:20;;;;;;;;;;;;;;;25.69;58.79;98809.22;2093237;28;19933;-53
2022/05/26 01:01:22;;;;;;;;;;;;;;;25.69;58.73;98801.09;2093306;28;19990;-54
2022/05/26 01:02:24;;;;;;;;;;;;;;;25.65;58.90;98795.28;2093359;28;20010;-50
2022/05/26 01:03:29;;;;;;;;;;;;;;;25.66;58.56;98790.69;2091416;28;19936;-52
2022/05/26 01:04:32;;;;;;;;;;;;;;;25.67;58.59;98795.06;2091322;28;19940;-53
2022/05/26 01:05:37;;;;;;;;;;;;;;;25.66;58.46;98787.97;2094218;28;19939;-55
2022/05/26 01:06:40;;;;;;;;;;;;;;;25.65;58.43;98787.16;2093287;28;19974;-53
2022/05/26 01:07:43;;;;;;;;;;;;;;;25.66;58.25;98780.66;2093703;28;20381;-50
2022/05/26 01:08:46;;;;;;;;;;;;;;;25.64;58.19;98780.91;2094576;28;19928;-53
2022/05/26 01:09:48;;;;;;;;;;;;;;;25.62;57.75;98774.06;2093937;28;19935;-53
2022/05/26 01:10:49;;;;;;;;;;;;;;;25.62;57.78;98776.78;2091815;28;19947;-50
2022/05/26 01:11:50;;;;;;;;;;;;;;;25.64;58.16;98782.78;2091502;28;20428;-55
2022/05/26 01:12:52;;;;;;;;;;;;;;;25.61;58.06;98777.84;2091790;28;20414;-55
2022/05/26 01:13:55;;;;;;;;;;;;;;;25.60;58.41;98782.47;2089039;28;19928;-54
2022/05/26 01:14:59;;;;;;;;;;;;;;;25.61;58.57;98786.00;2091516;28;19932;-54
2022/05/26 01:16:04;;;;;;;;;;;;;;;25.62;58.28;98788.47;2090408;28;19928;-52
2022/05/26 01:17:09;;;;;;;;;;;;;;;25.63;58.62;98798.28;2090205;28;19932;-51
2022/05/26 01:18:14;;;;;;;;;;;;;;;25.61;58.62;98791.44;2088166;28;19939;-55
2022/05/26 01:19:31;;;;;;;;;;;;;;;25.61;58.53;98796.88;2092949;28;19928;-52
2022/05/26 01:20:38;;;;;;;;;;;;;;;25.61;58.72;98794.16;2087595;28;24549;-54
2022/05/26 01:21:41;;;;;;;;;;;;;;;25.62;58.51;98799.31;2092721;28;19958;-53
2022/05/26 01:23:00;;;;;;;;;;;;;;;25.62;58.74;98798.50;2089995;28;19955;-52
2022/05/26 01:24:28;;;;;;;;;;;;;;;25.64;58.50;98808.06;2088364;28;20069;-55
2022/05/26 01:25:49;;;;;;;;;;;;;;;25.63;58.16;98802.84;2057021;28;22110;-52
2022/05/26 01:27:08;;;;;;;;;;;;;;;25.63;58.03;98803.72;2090339;28;19925;-56
2022/05/26 01:28:17;;;;;;;;;;;;;;;25.66;58.05;98812.41;2077138;28;19940;-55
2022/05/26 01:29:32;;;;;;;;;;;;;;;25.63;57.84;98802.84;2094677;28;20006;-51
2022/05/26 01:30:40;;;;;;;;;;;;;;;25.60;57.97;98806.06;2090220;28;19928;-56
2022/05/26 01:31:45;;;;;;;;;;;;;;;25.59;57.86;98799.00;2095189;28;19959;-54
2022/05/26 01:32:55;;;;;;;;;;;;;;;25.58;57.81;98795.47;2093092;28;20007;-53
2022/05/26 01:34:00;;;;;;;;;;;;;;;25.60;58.30;98789.78;2090806;28;19940;-52
2022/05/26 01:35:06;;;;;;;;;;;;;;;25.60;58.22;98795.19;2096098;28;19932;-55
2022/05/26 01:36:22;;;;;;;;;;;;;;;25.59;58.05;98791.66;2093939;28;19975;-50
2022/05/26 01:37:28;;;;;;;;;;;;;;;25.59;58.13;98791.66;2092343;28;20605;-51
2022/05/26 01:38:33;;;;;;;;;;;;;;;25.62;58.39;98791.19;2092607;28;20390;-54
2022/05/26 01:39:39;;;;;;;;;;;;;;;25.60;58.10;98796.06;2091971;28;19929;-54
2022/05/26 01:40:43;;;;;;;;;;;;;;;25.59;58.49;98791.66;2092543;28;19935;-50
2022/05/26 01:41:52;;;;;;;;;;;;;;;25.60;58.54;98793.34;2092639;28;20979;-51
2022/05/26 01:42:58;;;;;;;;;;;;;;;25.59;58.58;98788.97;2089478;28;19977;-51
2022/05/26 01:44:05;;;;;;;;;;;;;;;25.61;58.23;98783.28;2091488;28;20847;-53
2022/05/26 01:45:11;;;;;;;;;;;;;;;25.60;58.69;98787.06;2086640;28;22207;-52
2022/05/26 01:46:18;;;;;;;;;;;;;;;25.60;58.33;98787.06;2094290;28;20443;-50
2022/05/26 01:47:26;;;;;;;;;;;;;;;25.57;58.44;98777.50;2091928;28;19928;-48
2022/05/26 01:48:30;;;;;;;;;;;;;;;25.57;58.53;98776.69;2091166;28;20668;-48
2022/05/26 01:49:33;;;;;;;;;;;;;;;25.57;58.81;98768.53;2093161;28;19990;-47
2022/05/26 01:50:38;;;;;;;;;;;;;;;25.56;59.08;98767.72;2090736;28;20164;-50
2022/05/26 01:51:44;;;;;;;;;;;;;;;25.55;59.11;98760.66;2092677;28;20135;-52
2022/05/26 01:52:51;;;;;;;;;;;;;;;25.56;59.50;98762.28;2094332;28;19929;-48
2022/05/26 01:53:58;;;;;;;;;;;;;;;25.56;59.31;98762.28;2087459;28;19999;-48
2022/05/26 01:55:03;;;;;;;;;;;;;;;25.55;59.29;98763.38;2092049;28;20005;-51
2022/05/26 01:56:10;;;;;;;;;;;;;;;25.55;59.03;98757.94;2090434;28;19924;-49
2022/05/26 01:57:14;;;;;;;;;;;;;;;25.55;59.22;98763.38;2093937;28;19933;-48
2022/05/26 01:58:18;;;;;;;;;;;;;;;25.55;59.23;98757.94;2092268;28;20044;-48
2022/05/26 01:59:21;;;;;;;;;;;;;;;25.57;58.87;98761.22;2090681;28;19928;-52
2022/05/26 02:00:23;;;;;;;;;;;;;;;25.57;58.78;98760.38;2092854;28;19932;-48
2022/05/26 02:01:27;;;;;;;;;;;;;;;25.56;58.80;98759.56;2085540;28;19928;-51
2022/05/26 02:02:34;;;;;;;;;;;;;;;25.57;59.07;98760.38;2087238;28;20476;-50
2022/05/26 02:03:36;;;;;;;;;;;;;;;25.55;58.93;98759.84;2092632;28;19967;-52
2022/05/26 02:04:40;;;;;;;;;;;;;;;25.54;59.23;98758.16;2091666;28;19933;-50
2022/05/26 02:05:42;;;;;;;;;;;;;;;25.55;59.28;98752.50;2091782;28;20030;-51
2022/05/26 02:06:46;;;;;;;;;;;;;;;25.55;59.22;98748.97;2090341;28;19936;-53
2022/05/26 02:07:50;;;;;;;;;;;;;;;25.55;58.74;98744.34;2087568;28;19940;-56
2022/05/26 02:08:54;;;;;;;;;;;;;;;25.55;58.91;98741.66;2090716;28;19929;-51
2022/05/26 02:09:57;;;;;;;;;;;;;;;25.56;58.99;98740.56;2092112;28;19931;-53
2022/05/26 02:11:09;;;;;;;;;;;;;;;25.58;58.55;98735.72;2092957;28;19936;-52
2022/05/26 02:12:13;;;;;;;;;;;;;;;25.58;58.51;98737.63;2089722;28;19939;-54
2022/05/26 02:13:18;;;;;;;;;;;;;;;25.57;58.40;98728.63;2092324;28;20404;-52
2022/05/26 02:14:24;;;;;;;;;;;;;;;25.58;58.17;98727.56;2088842;28;19928;-53
2022/05/26 02:15:27;;;;;;;;;;;;;;;25.57;58.05;98728.63;2090026;28;19928;-54
2022/05/26 02:16:32;;;;;;;;;;;;;;;25.56;57.88;98726.97;2090521;28;19967;-53
2022/05/26 02:17:37;;;;;;;;;;;;;;;25.57;58.22;98727.81;2091599;28;19968;-52
2022/05/26 02:18:41;;;;;;;;;;;;;;;25.55;58.12;98722.63;2086747;28;19998;-51
2022/05/26 02:19:46;;;;;;;;;;;;;;;25.56;58.14;98726.16;2092605;28;20086;-53
2022/05/26 02:20:48;;;;;;;;;;;;;;;25.57;57.73;98730.50;2093035;28;19924;-52
2022/05/26 02:21:54;;;;;;;;;;;;;;;25.57;57.81;98731.34;2092227;28;20528;-52
2022/05/26 02:22:59;;;;;;;;;;;;;;;25.57;57.91;98731.34;2090344;28;19986;-54
2022/05/26 02:24:03;;;;;;;;;;;;;;;25.58;57.98;98721.31;2089683;28;19935;-49
2022/05/26 02:25:07;;;;;;;;;;;;;;;25.56;57.74;98721.56;2091469;28;19966;-51
2022/05/26 02:26:08;;;;;;;;;;;;;;;25.57;57.94;98722.38;2089491;28;19932;-52
2022/05/26 02:27:09;;;;;;;;;;;;;;;25.56;57.81;98716.13;2095289;22;19915;-49
2022/05/26 02:28:10;;;;;;;;;;;;;;;25.54;57.47;98712.00;2081400;28;21975;-50
2022/05/26 02:30:34;;;;;;;;;;;;;;;25.51;57.78;98704.34;2080374;28;19932;-49
2022/05/26 02:31:34;;;;;;;;;;;;;;;25.51;57.84;98707.88;2081953;28;19935;-48
2022/05/26 02:32:39;;;;;;;;;;;;;;;25.51;57.72;98707.88;2083168;28;19924;-51
2022/05/26 02:33:39;;;;;;;;;;;;;;;25.53;57.72;98708.47;2076197;28;19932;-49
2022/05/26 02:34:44;;;;;;;;;;;;;;;25.52;57.73;98703.28;2082374;28;20503;-48
2022/05/26 02:35:48;;;;;;;;;;;;;;;25.51;57.91;98713.31;2081259;28;20616;-48
2022/05/26 02:36:50;;;;;;;;;;;;;;;25.51;57.46;98713.31;2081787;28;19928;-47
2022/05/26 02:37:55;;;;;;;;;;;;;;;25.50;57.31;98711.69;2085267;28;19935;-51
2022/05/26 02:38:55;;;;;;;;;;;;;;;25.50;57.34;98711.69;2082623;28;19964;-50
2022/05/26 02:39:57;;;;;;;;;;;;;;;25.51;57.50;98716.03;2084407;28;20483;-47
2022/05/26 02:40:58;;;;;;;;;;;;;;;25.51;57.62;98712.50;2086613;28;20657;-47
2022/05/26 02:41:59;;;;;;;;;;;;;;;25.50;57.63;98711.69;2083248;28;19939;-47
2022/05/26 02:43:03;;;;;;;;;;;;;;;25.51;57.40;98713.31;2083953;28;19982;-48
2022/05/26 02:44:05;;;;;;;;;;;;;;;25.49;57.50;98710.06;2079041;28;19929;-48
2022/05/26 02:45:07;;;;;;;;;;;;;;;25.49;57.34;98714.63;2084760;28;19931;-49
2022/05/26 02:46:14;;;;;;;;;;;;;;;25.48;57.76;98719.25;2081504;28;19951;-51
2022/05/26 02:47:23;;;;;;;;;;;;;;;25.50;57.32;98711.69;2082442;28;20557;-48
2022/05/26 02:48:34;;;;;;;;;;;;;;;25.50;57.59;98714.41;2080179;28;20014;-51
2022/05/26 02:49:44;;;;;;;;;;;;;;;25.50;57.56;98711.69;2080705;28;19968;-49
2022/05/26 02:50:52;;;;;;;;;;;;;;;25.51;57.33;98709.78;2084396;28;20380;-49
2022/05/26 02:51:59;;;;;;;;;;;;;;;25.50;57.39;98725.25;2077041;28;19929;-49
2022/05/26 02:53:04;;;;;;;;;;;;;;;25.51;57.58;98717.94;2077823;28;19995;-51
2022/05/26 02:54:10;;;;;;;;;;;;;;;25.51;57.50;98713.31;2082692;28;19983;-50
2022/05/26 02:55:18;;;;;;;;;;;;;;;25.51;57.63;98720.66;2084938;28;21227;-47
2022/05/26 02:56:29;;;;;;;;;;;;;;;25.53;57.65;98722.03;2083749;28;19928;-49
2022/05/26 02:57:36;;;;;;;;;;;;;;;25.52;57.32;98719.56;2082185;28;19928;-48
2022/05/26 02:58:40;;;;;;;;;;;;;;;25.52;57.61;98730.44;2079366;28;19936;-48
2022/05/26 02:59:45;;;;;;;;;;;;;;;25.49;57.90;98725.50;2084753;28;19929;-47
2022/05/26 03:00:51;;;;;;;;;;;;;;;25.49;57.66;98718.19;2086486;28;19935;-47
2022/05/26 03:01:54;;;;;;;;;;;;;;;25.48;57.68;98721.97;2084251;28;20615;-50
2022/05/26 03:02:59;;;;;;;;;;;;;;;25.51;57.87;98717.94;2086497;28;19925;-48
2022/05/26 03:04:04;;;;;;;;;;;;;;;25.51;57.89;98720.66;2087061;28;19929;-47
2022/05/26 03:05:09;;;;;;;;;;;;;;;25.51;57.57;98728.78;2082787;28;19929;-52
2022/05/26 03:06:12;;;;;;;;;;;;;;;25.52;57.85;98720.41;2086078;28;20843;-48
2022/05/26 03:07:17;;;;;;;;;;;;;;;25.50;57.67;98729.88;2085570;28;19929;-47
2022/05/26 03:08:21;;;;;;;;;;;;;;;25.51;57.85;98729.59;2081090;28;19928;-49
2022/05/26 03:09:23;;;;;;;;;;;;;;;25.50;57.92;98730.69;2083277;28;19937;-50
2022/05/26 03:10:24;;;;;;;;;;;;;;;25.48;57.65;98735.53;2081720;28;19928;-47
2022/05/26 03:11:27;;;;;;;;;;;;;;;25.50;58.17;98738.84;2080281;28;20563;-46
2022/05/26 03:12:29;;;;;;;;;;;;;;;25.49;58.12;98739.91;2089818;28;20647;-48
2022/05/26 03:13:30;;;;;;;;;;;;;;;25.47;58.04;98733.91;2087096;28;20449;-49
2022/05/26 03:14:31;;;;;;;;;;;;;;;25.48;58.03;98740.16;2085526;28;20418;-49
2022/05/26 03:15:33;;;;;;;;;;;;;;;25.48;57.90;98740.97;2084934;28;19929;-47
2022/05/26 03:16:34;;;;;;;;;;;;;;;25.47;58.33;98744.75;2083000;28;19998;-48
2022/05/26 03:17:36;;;;;;;;;;;;;;;25.46;58.07;98743.09;2084072;28;19972;-50
2022/05/26 03:18:36;;;;;;;;;;;;;;;25.48;58.30;98743.69;2082225;28;19968;-50
2022/05/26 03:19:40;;;;;;;;;;;;;;;25.47;58.12;98744.75;2079515;28;19935;-47
2022/05/26 03:20:40;;;;;;;;;;;;;;;25.48;58.53;98740.16;2085492;28;19932;-49
2022/05/26 03:21:42;;;;;;;;;;;;;;;25.50;58.48;98743.44;2085865;28;19959;-50
2022/05/26 03:22:43;;;;;;;;;;;;;;;25.52;58.41;98744.00;2085555;28;19940;-46
2022/05/26 03:23:44;;;;;;;;;;;;;;;25.51;58.24;98747.81;2085027;28;20286;-51
2022/05/26 03:24:45;;;;;;;;;;;;;;;25.50;58.08;98744.28;2084414;28;19967;-48
2022/05/26 03:25:47;;;;;;;;;;;;;;;25.48;58.28;98749.13;2083541;28;19944;-48
2022/05/26 03:26:48;;;;;;;;;;;;;;;25.47;58.49;98755.63;2085761;28;19967;-49
2022/05/26 03:27:49;;;;;;;;;;;;;;;25.47;57.97;98750.19;2081554;28;19936;-49
2022/05/26 03:28:50;;;;;;;;;;;;;;;25.49;58.08;98764.34;2083839;28;19932;-50
2022/05/26 03:29:51;;;;;;;;;;;;;;;25.48;58.41;98754.53;2084430;28;19956;-52
2022/05/26 03:30:52;;;;;;;;;;;;;;;25.47;58.59;98758.34;2087542;28;20493;-48
2022/05/26 03:31:54;;;;;;;;;;;;;;;25.46;58.37;98755.84;2085837;28;19929;-50
2022/05/26 03:32:54;;;;;;;;;;;;;;;25.46;58.67;98753.97;2085615;28;20655;-48
2022/05/26 03:41:52;;;;;;;;;;;;;;;25.44;58.62;98772.41;2084113;28;19932;-55
2022/05/26 03:42:53;;;;;;;;;;;;;;;25.44;58.52;98777.84;2087958;28;21513;-50
2022/05/26 03:43:57;;;;;;;;;;;;;;;25.45;58.69;98782.19;2083274;28;20004;-52
2022/05/26 03:44:58;;;;;;;;;;;;;;;25.44;58.68;98779.75;2075057;28;19932;-54
2022/05/26 03:46:00;;;;;;;;;;;;;;;25.43;58.81;98781.59;2081234;28;19940;-50
2022/05/26 03:47:01;;;;;;;;;;;;;;;25.45;58.83;98784.09;2085216;28;20626;-54
2022/05/26 03:48:02;;;;;;;;;;;;;;;25.45;58.54;98787.63;2087116;28;19933;-54
2022/05/26 03:49:04;;;;;;;;;;;;;;;25.45;58.53;98787.63;2080052;28;19974;-55
2022/05/26 03:50:05;;;;;;;;;;;;;;;25.46;58.70;98786.53;2081120;28;19924;-49
2022/05/26 03:51:08;;;;;;;;;;;;;;;25.45;58.70;98790.34;2078747;28;20031;-54
2022/05/26 03:52:09;;;;;;;;;;;;;;;25.45;58.39;98797.66;2084617;28;19924;-52
2022/05/26 03:53:11;;;;;;;;;;;;;;;25.46;58.42;98799.31;2085966;28;19939;-50
2022/05/26 03:54:11;;;;;;;;;;;;;;;25.46;58.66;98802.84;2083771;28;19932;-53
2022/05/26 03:55:13;;;;;;;;;;;;;;;25.45;58.47;98806.63;2083565;28;19929;-50
2022/05/26 03:56:13;;;;;;;;;;;;;;;25.45;58.59;98797.66;2080674;28;19932;-53
2022/05/26 03:57:15;;;;;;;;;;;;;;;25.46;58.66;98800.13;2085174;28;19974;-48
2022/05/26 03:58:17;;;;;;;;;;;;;;;25.46;58.71;98804.75;2082681;28;19924;-55
2022/05/26 03:59:19;;;;;;;;;;;;;;;25.46;58.36;98804.75;2082955;28;20019;-50
2022/05/26 04:00:21;;;;;;;;;;;;;;;25.43;58.58;98803.34;2083108;28;19933;-53
2022/05/26 04:01:23;;;;;;;;;;;;;;;25.45;59.24;98801.19;2083318;28;19931;-54
2022/05/26 04:02:23;;;;;;;;;;;;;;;25.47;59.07;98795.53;2080568;28;20015;-54
2022/05/26 04:03:25;;;;;;;;;;;;;;;25.46;59.16;98802.03;2083353;28;19961;-46
2022/05/26 04:04:26;;;;;;;;;;;;;;;25.47;59.58;98796.38;2084483;28;19932;-52
2022/05/26 04:05:27;;;;;;;;;;;;;;;25.48;59.19;98800.72;2082598;28;19984;-50
2022/05/26 04:06:29;;;;;;;;;;;;;;;25.46;59.05;98805.56;2086369;28;19928;-52
2022/05/26 04:07:31;;;;;;;;;;;;;;;25.44;59.33;98805.00;2080076;28;20067;-54
2022/05/26 04:08:33;;;;;;;;;;;;;;;25.44;58.93;98801.47;2081653;28;20561;-54
2022/05/26 04:09:33;;;;;;;;;;;;;;;25.43;58.97;98814.19;2085961;28;19929;-50
2022/05/26 04:10:35;;;;;;;;;;;;;;;25.45;58.87;98808.53;2085860;28;19931;-50
2022/05/26 04:11:35;;;;;;;;;;;;;;;25.44;58.93;98815.88;2083718;28;20570;-52
2022/05/26 04:12:37;;;;;;;;;;;;;;;25.45;58.85;98816.69;2085880;28;19933;-55
2022/05/26 04:13:38;;;;;;;;;;;;;;;25.46;58.66;98813.69;2085041;28;20337;-51
2022/05/26 04:14:40;;;;;;;;;;;;;;;25.45;58.66;98819.41;2083644;28;19940;-49
2022/05/26 04:15:40;;;;;;;;;;;;;;;25.45;58.69;98822.09;2081651;28;19933;-52
2022/05/26 04:16:42;;;;;;;;;;;;;;;25.43;58.94;98830.47;2083873;28;19933;-49
2022/05/26 04:17:43;;;;;;;;;;;;;;;25.44;58.68;98829.44;2085271;28;19928;-54
2022/05/26 04:18:44;;;;;;;;;;;;;;;25.45;58.83;98831.06;2083580;28;19956;-48
2022/05/26 04:19:45;;;;;;;;;;;;;;;25.43;59.01;98830.47;2083127;28;19975;-51
2022/05/26 04:20:46;;;;;;;;;;;;;;;25.42;58.68;98840.53;2083302;28;20289;-51
2022/05/26 04:23:08;;;;;;;;;;;;;;;25.46;59.00;98840.84;2084528;28;20023;-53
2022/05/26 04:24:09;;;;;;;;;;;;;;;25.49;59.03;98839.53;2083553;28;19929;-51
2022/05/26 04:25:11;;;;;;;;;;;;;;;25.48;58.66;98836.00;2083526;28;20482;-51
2022/05/26 04:26:11;;;;;;;;;;;;;;;25.46;58.57;98849.00;2084276;28;20306;-51
2022/05/26 04:27:13;;;;;;;;;;;;;;;25.46;58.69;98840.84;2080888;28;19928;-49
2022/05/26 04:28:14;;;;;;;;;;;;;;;25.45;58.86;98844.66;2083197;28;19928;-52
2022/05/26 04:29:15;;;;;;;;;;;;;;;25.44;58.29;98850.34;2082362;28;19971;-54
2022/05/26 04:30:16;;;;;;;;;;;;;;;25.45;58.50;98850.09;2083196;28;21153;-46
2022/05/26 04:31:17;;;;;;;;;;;;;;;25.45;58.54;98850.09;2084522;28;19936;-48
2022/05/26 04:32:18;;;;;;;;;;;;;;;25.44;58.38;98847.63;2082047;28;19928;-55
2022/05/26 04:33:20;;;;;;;;;;;;;;;25.43;58.64;98854.94;2082296;28;20471;-51
2022/05/26 04:34:21;;;;;;;;;;;;;;;25.43;58.85;98852.22;2083449;28;19933;-55
2022/05/26 04:35:22;;;;;;;;;;;;;;;25.44;58.47;98864.75;2084261;28;20028;-55
2022/05/26 04:36:23;;;;;;;;;;;;;;;25.48;59.04;98860.47;2085118;28;20666;-53
2022/05/26 04:37:26;;;;;;;;;;;;;;;25.46;58.94;98868.00;2084925;28;20432;-53
2022/05/26 04:38:27;;;;;;;;;;;;;;;25.45;58.77;98874.53;2082846;28;19994;-52
2022/05/26 04:39:29;;;;;;;;;;;;;;;25.46;58.74;98872.63;2081366;28;19998;-54
2022/05/26 04:40:30;;;;;;;;;;;;;;;25.46;58.73;98878.06;2084558;28;20586;-50
2022/05/26 04:41:31;;;;;;;;;;;;;;;25.45;58.46;98871.81;2085459;28;19925;-49
2022/05/26 04:42:33;;;;;;;;;;;;;;;25.45;58.84;98877.25;2084087;28;19998;-51
2022/05/26 04:43:34;;;;;;;;;;;;;;;25.43;58.66;98876.66;2091008;28;19935;-53
2022/05/26 04:44:36;;;;;;;;;;;;;;;25.42;58.97;98883.97;2081879;28;19925;-49
2022/05/26 04:45:38;;;;;;;;;;;;;;;25.45;58.69;98885.38;2086862;28;20031;-48
2022/05/26 04:46:38;;;;;;;;;;;;;;;25.45;58.46;98885.38;2087087;28;19939;-53
2022/05/26 04:47:40;;;;;;;;;;;;;;;25.46;58.99;98892.44;2085880;28;20478;-52
2022/05/26 04:48:40;;;;;;;;;;;;;;;25.45;59.26;98895.44;2082702;28;19932;-51
2022/05/26 04:49:42;;;;;;;;;;;;;;;25.43;59.35;98898.38;2085334;28;20527;-53
2022/05/26 04:50:43;;;;;;;;;;;;;;;25.44;59.32;98908.19;2082793;28;20413;-53
2022/05/26 04:51:45;;;;;;;;;;;;;;;25.45;59.25;98907.09;2085408;28;19935;-54
2022/05/26 04:52:48;;;;;;;;;;;;;;;25.45;59.30;98898.97;2081871;28;19935;-52
2022/05/26 04:53:48;;;;;;;;;;;;;;;25.45;59.37;98914.44;2084613;28;19939;-51
2022/05/26 04:54:50;;;;;;;;;;;;;;;25.44;59.34;98913.63;2087721;28;20572;-48
2022/05/26 04:55:55;;;;;;;;;;;;;;;25.44;59.11;98912.78;2085941;28;19932;-54
2022/05/26 04:56:56;;;;;;;;;;;;;;;25.45;59.41;98911.72;2083069;28;20346;-56
2022/05/26 04:57:58;;;;;;;;;;;;;;;25.45;59.23;98914.44;2082762;28;19972;-54
2022/05/26 04:58:58;;;;;;;;;;;;;;;25.45;59.08;98917.97;2083771;28;19935;-53
2022/05/26 05:00:00;;;;;;;;;;;;;;;25.45;59.37;98917.16;2083382;28;20477;-52
2022/05/26 05:01:00;;;;;;;;;;;;;;;25.42;59.51;98922.00;2085178;28;19965;-51
2022/05/26 05:02:04;;;;;;;;;;;;;;;25.44;59.37;98924.47;2081245;28;19929;-50
2022/05/26 05:03:05;;;;;;;;;;;;;;;25.44;59.26;98924.47;2080340;28;19933;-55
2022/05/26 05:04:06;;;;;;;;;;;;;;;25.45;59.33;98930.72;2083458;28;19932;-52
2022/05/26 05:05:09;;;;;;;;;;;;;;;25.45;59.63;98931.53;2086943;28;19936;-47
2022/05/26 05:06:09;;;;;;;;;;;;;;;25.45;59.51;98936.97;2084171;28;21814;-54
2022/05/26 05:07:11;;;;;;;;;;;;;;;25.45;59.25;98936.97;2086075;28;19932;-48
2022/05/26 05:08:14;;;;;;;;;;;;;;;25.44;59.31;98938.06;2083228;28;20006;-54
2022/05/26 05:09:15;;;;;;;;;;;;;;;25.42;59.10;98941.00;2085513;28;19932;-48
2022/05/26 05:10:16;;;;;;;;;;;;;;;25.43;59.42;98939.09;2085973;28;19928;-52
2022/05/26 05:11:17;;;;;;;;;;;;;;;25.44;59.17;98940.78;2082430;28;21143;-54
2022/05/26 05:12:20;;;;;;;;;;;;;;;25.44;59.47;98940.78;2084444;28;21111;-51
2022/05/26 05:13:21;;;;;;;;;;;;;;;25.48;60.18;98938.38;2079861;28;20028;-48
2022/05/26 05:14:23;;;;;;;;;;;;;;;25.48;59.99;98941.09;2080434;28;19932;-51
2022/05/26 05:15:28;;;;;;;;;;;;;;;25.47;59.68;98945.72;2082092;28;20398;-52
2022/05/26 05:16:30;;;;;;;;;;;;;;;25.47;59.98;98942.19;2081186;28;19938;-52
2022/05/26 05:17:32;;;;;;;;;;;;;;;25.46;59.54;98940.50;2084441;28;19959;-50
2022/05/26 05:18:32;;;;;;;;;;;;;;;25.44;59.65;98939.94;2081493;28;19963;-50
2022/05/26 05:19:34;;;;;;;;;;;;;;;25.42;59.92;98943.72;2081754;28;20314;-50
2022/05/26 05:20:35;;;;;;;;;;;;;;;25.43;59.81;98944.53;2084603;28;19968;-50
2022/05/26 05:21:39;;;;;;;;;;;;;;;25.44;60.06;98940.78;2083856;28;19932;-56
2022/05/26 05:22:41;;;;;;;;;;;;;;;25.45;59.67;98944.31;2079568;28;19929;-49
2022/05/26 05:23:46;;;;;;;;;;;;;;;25.45;59.91;98942.41;2082265;28;19929;-53
2022/05/26 05:24:53;;;;;;;;;;;;;;;25.45;59.45;98941.59;2080443;28;19932;-55
2022/05/26 05:25:54;;;;;;;;;;;;;;;25.47;59.82;98937.56;2083948;28;19929;-50
2022/05/26 05:26:59;;;;;;;;;;;;;;;25.49;60.28;98943.59;2077032;28;20915;-50
2022/05/26 05:28:03;;;;;;;;;;;;;;;25.49;59.65;98945.47;2083065;28;19975;-54
2022/05/26 05:29:07;;;;;;;;;;;;;;;25.47;59.81;98944.91;2081034;28;20389;-49
2022/05/26 05:30:13;;;;;;;;;;;;;;;25.49;60.33;98940.88;2082080;28;19929;-50
2022/05/26 05:31:15;;;;;;;;;;;;;;;25.49;60.43;98942.75;2086090;28;19929;-50
2022/05/26 05:32:18;;;;;;;;;;;;;;;25.50;60.91;98934.38;2084853;28;20554;-48
2022/05/26 05:33:21;;;;;;;;;;;;;;;25.49;60.50;98927.31;2082074;28;20617;-50
2022/05/26 05:34:25;;;;;;;;;;;;;;;25.50;60.74;98930.84;2079020;28;19939;-48
2022/05/26 05:35:28;;;;;;;;;;;;;;;25.47;60.44;98924.00;2081996;28;19932;-52
2022/05/26 05:36:32;;;;;;;;;;;;;;;25.44;60.38;98921.75;2084956;28;19983;-49
2022/05/26 05:37:33;;;;;;;;;;;;;;;25.45;60.74;98920.69;2080376;28;19943;-47
2022/05/26 05:38:38;;;;;;;;;;;;;;;25.44;60.50;98919.06;2078522;28;19925;-49
2022/05/26 05:39:40;;;;;;;;;;;;;;;25.44;60.80;98918.22;2080207;28;19932;-52